^^

..:: Metar reader and decoder ::..



ritorno a scuola

OSSERVAZIONI E PREVISIONI METEOROLOGICHE DAGLI AEROPORTI ITALIANI
(messaggi METAR)

 


LIPX - Villafranca(Cv/M, Italy
Distanza dalla stazione: NNE 28km
Dati ricevuti: Fri, 07-Oct-2022 08:50
Sereno
Sereno
 Vento da NO
Vento: NO 6 km/h
Temperatura: 15°C
P.to di Rugiada: 12°C
Umidità: 82%
Barometro: 1026 hPa
Sommario: Sereno
Visibilità: superiore a 10 km
2022/10/07 06:50 LIPX 070650Z 32003KT CAVOK 15/12 Q1026
LIPO - Brescia/Montichiari, Italy
Distanza dalla stazione: NO 38km
Dati ricevuti: Fri, 07-Oct-2022 08:50
Sereno
Sereno
 Vento da NNE
Vento: NNE 9 km/h
Temperatura: 17°C
P.to di Rugiada: 12°C
Umidità: 73%
Barometro: 1026 hPa
Nuvole: Sereno
Visibilità: 10 km
2022/10/07 06:50 LIPO 070650Z AUTO 03005KT 9999 NCD 17/12 Q1026
 
LIPL - Ghedi (it-Afb), Italy
Distanza dalla stazione: NO 42km
Dati ricevuti: Fri, 07-Oct-2022 08:55
parzialmente nuvoloso
parzialmente nuvoloso
 Vento da NNE
Vento: NNE 4 km/h
Temperatura: 16°C
P.to di Rugiada: 13°C
Umidità: 83%
Barometro: 1026 hPa
Nuvole: parzialmente nuvoloso
Visibilità: 6 km
2022/10/07 06:55 LIPL 070655Z 02002KT 6000 NSC 16/13 Q1026
LIMP - Parma, Italy
Distanza dalla stazione: SO 49km
Dati ricevuti: Fri, 07-Oct-2022 08:50
Foschia, parzialmente nuvoloso
Foschia, parzialmente nuvoloso
 Vento da OSO
Vento: OSO 6 km/h
Temperatura: 15°C
P.to di Rugiada: 14°C
Umidità: 94%
Barometro: 1027 hPa
Sommario: Foschia
Nuvole: parzialmente nuvoloso
Visibilità: 4 km
2022/10/07 06:50 LIMP 070650Z 24003KT 210V270 4000 BR NSC 15/14 Q1027
 
LIMS - Piacenza (it-Afb, Italy
Distanza dalla stazione: OSO 81km
Dati ricevuti: Fri, 07-Oct-2022 08:55
Foschia, parzialmente nuvoloso
Foschia, parzialmente nuvoloso
 Vento da O
Vento: O 11 km/h
Temperatura: 13°C
P.to di Rugiada: 13°C
Umidità: 100%
Barometro: 1025 hPa
Sommario: Foschia
Nuvole: parzialmente nuvoloso
Visibilità: 4 km
2022/10/07 06:55 LIMS 070655Z 26006KT 230V300 4000 BR NSC 13/13 Q1025
LIPF - Ferrara (aut), Italy
Distanza dalla stazione: ESE 84km
Dati ricevuti: Fri, 07-Oct-2022 08:55
Foschia, parzialmente nuvoloso
Foschia, parzialmente nuvoloso
 Vento da NE
Vento: NE 6 km/h
Temperatura: 12°C
P.to di Rugiada: 11°C
Umidità: 94%
Barometro: 1026 hPa
Sommario: Foschia
Nuvole: parzialmente nuvoloso
Visibilità: 3 km
2022/10/07 06:55 LIPF 070655Z 04003KT 2500 BR NSC 12/11 Q1026
 
LIPE - Bologna/Borgo (a, Italy
Distanza dalla stazione: SE 88km
Dati ricevuti: Fri, 07-Oct-2022 08:50
parzialmente nuvoloso
parzialmente nuvoloso
 Vento da SSO
Vento: SSO 6 km/h
Temperatura: 15°C
P.to di Rugiada: 13°C
Umidità: 88%
Barometro: 1026 hPa
Nuvole: parzialmente nuvoloso
Visibilità: 8 km
2022/10/07 06:50 LIPE 070650Z 21003KT 8000 NSC 15/13 Q1026
LIPU - Padova (civ/It-A, Italy
Distanza dalla stazione: ENE 93km
Dati ricevuti: Fri, 07-Oct-2022 08:50
Sereno
Sereno
 Vento da N
Vento: N 6 km/h
Temperatura: 15°C
P.to di Rugiada: 12°C
Umidità: 82%
Barometro: 1026 hPa
Sommario: Sereno
Visibilità: superiore a 10 km
2022/10/07 06:50 LIPU 070650Z 35003KT CAVOK 15/12 Q1026
 
LIME - Bergamo/Orio Ser, Italy
Distanza dalla stazione: NO 95km
Dati ricevuti: Fri, 07-Oct-2022 08:50
parzialmente nuvoloso
parzialmente nuvoloso
 Vento da NNE
Vento: NNE 6 km/h
Temperatura: 15°C
P.to di Rugiada: 13°C
Umidità: 88%
Barometro: 1027 hPa
Nuvole: parzialmente nuvoloso
Visibilità: 8 km
2022/10/07 06:50 LIME 070650Z 02003KT 8000 NSC 15/13 Q1027 NOSIG
LIMT - Cisa Pass, Italy
Distanza dalla stazione: SO 103km
Dati ricevuti: Mon, 23-Sep-2019 13:55
Non attivo
Nebbia
Nebbia
 Vento da calm
Vento: Calma
Temperatura: 10°C
P.to di Rugiada: 10°C
Umidità: 100%
Barometro: 1014 hPa
Sommario: Nebbia
Visibilità: 0 km
2019/09/23 11:55 LIMT 231155Z 00000KT 0000 FG VV/// 10/10 Q1014 RMK MON INVIS VAL INVIS VIS MIN 0000
 
LIVC - Cimone Mountain, Italy
Distanza dalla stazione: S 108km
Dati ricevuti: Fri, 07-Oct-2022 08:55

 Vento da SSE
Vento: SSE 17 km/h
Temperatura: 12°C
P.to di Rugiada: -13°C
Umidità: 16%
Barometro: 1032 hPa
2022/10/07 06:55 LIVC 070655Z AUTO 16009KT //// 12/M13 Q1032
LIVP - Paganella Mounta, Italy
Distanza dalla stazione: NNE 112km
Dati ricevuti: Fri, 07-Oct-2022 08:55
Sereno
Sereno
 Vento da SSE
Vento: SSE 15 km/h
Temperatura: 7°C
Temperatura del vento: 4°C
P.to di Rugiada: -2°C
Umidità: 53%
Barometro: 1031 hPa
Sommario: Sereno
Visibilità: superiore a 10 km
2022/10/07 06:55 LIVP 070655Z 15008KT CAVOK 07/M02 Q1031
 
LIML - Milano/Linate, Italy
Distanza dalla stazione: ONO 115km
Dati ricevuti: Fri, 07-Oct-2022 08:50
Foschia, parzialmente nuvoloso
Foschia, parzialmente nuvoloso
 Vento da variabile
Vento: variabile 2 km/h
Temperatura: 15°C
P.to di Rugiada: 15°C
Umidità: 100%
Barometro: 1026 hPa
Sommario: Foschia
Nuvole: parzialmente nuvoloso
Visibilità: 5 km
2022/10/07 06:50 LIML 070650Z VRB01KT 5000 BR NSC 15/15 Q1026 NOSIG
LIPS - Istrana (it-Afb), Italy
Distanza dalla stazione: ENE 123km
Dati ricevuti: Fri, 07-Oct-2022 08:55
Sereno
Sereno
 Vento da variabile
Vento: variabile 0 km/h
Temperatura: 17°C
P.to di Rugiada: 12°C
Umidità: 73%
Barometro: 1025 hPa
Sommario: Sereno
Visibilità: superiore a 10 km
2022/10/07 06:55 LIPS 070655Z /////KT CAVOK 17/12 Q1025
 
LIPH - Treviso(Civ/It-A, Italy
Distanza dalla stazione: ENE 127km
Dati ricevuti: Fri, 07-Oct-2022 08:50
Sereno
Sereno
 Vento da variabile
Vento: variabile 2 km/h
Temperatura: 17°C
P.to di Rugiada: 12°C
Umidità: 73%
Barometro: 1025 hPa
Sommario: Sereno
Visibilità: superiore a 10 km
2022/10/07 06:50 LIPH 070650Z VRB01KT CAVOK 17/12 Q1025
LIPZ - Venezia/Tessera, Italy
Distanza dalla stazione: ENE 133km
Dati ricevuti: Fri, 07-Oct-2022 08:50
Sereno
Sereno
 Vento da N
Vento: N 7 km/h
Temperatura: 16°C
P.to di Rugiada: 12°C
Umidità: 77%
Barometro: 1025 hPa
Sommario: Sereno
Visibilità: superiore a 10 km
2022/10/07 06:50 LIPZ 070650Z 36004KT 330V030 CAVOK 16/12 Q1025 NOSIG
 
LIQW - Sarzana/Luni, Italy
Distanza dalla stazione: SSO 135km
Dati ricevuti: Fri, 07-Oct-2022 08:55
Sereno
Sereno
 Vento da variabile
Vento: variabile 0 km/h
Temperatura: 16°C
P.to di Rugiada: 16°C
Umidità: 100%
Barometro: 1024 hPa
Sommario: Sereno
Visibilità: superiore a 10 km
2022/10/07 06:55 LIQW 070655Z /////KT CAVOK 16/16 Q1024
LIVR - Rolle Pass, Italy
Distanza dalla stazione: NE 150km
Dati ricevuti: Fri, 07-Oct-2022 08:55
Sereno
Sereno
 Vento da ESE
Vento: ESE 13 km/h
Temperatura: 7°C
Temperatura del vento: 5°C
P.to di Rugiada: -2°C
Umidità: 53%
Barometro: 1031 hPa
Sommario: Sereno
Visibilità: superiore a 10 km
2022/10/07 06:55 LIVR 070655Z 11007KT CAVOK 07/M02 Q1031
 
LIPC - Cervia (it-Afb), Italy
Dati ricevuti: Fri, 07-Oct-2022 08:55
Sereno
Sereno
 Vento da OSO
Vento: OSO 11 km/h
Temperatura: 15°C
P.to di Rugiada: 13°C
Umidità: 88%
Barometro: 1025 hPa
Sommario: Sereno
Visibilità: superiore a 10 km
2022/10/07 06:55 LIPC 070655Z 25006KT CAVOK 15/13 Q1025
LIPR - Rimini (civ/It-A, Italy
Dati ricevuti: Fri, 07-Oct-2022 08:50
Sereno
Sereno
 Vento da OSO
Vento: OSO 6 km/h
Temperatura: 16°C
P.to di Rugiada: 14°C
Umidità: 88%
Barometro: 1025 hPa
Sommario: Sereno
Visibilità: superiore a 10 km
2022/10/07 06:50 LIPR 070650Z 25003KT 230V300 CAVOK 16/14 Q1025
 
LIPK - Forli (civ/It-Af, Italy
Distanza dalla stazione: SE 154km
Dati ricevuti: Fri, 07-Oct-2022 08:50
parzialmente nuvoloso
parzialmente nuvoloso
 Vento da variabile
Vento: variabile 2 km/h
Temperatura: 13°C
P.to di Rugiada: 12°C
Umidità: 94%
Barometro: 1026 hPa
Nuvole: parzialmente nuvoloso
Visibilità: 7 km
2022/10/07 06:50 LIPK 070650Z VRB01KT 7000 NSC 13/12 Q1026
LIRX - Monte Calamita, Italy
Dati ricevuti: Fri, 07-Oct-2022 08:55
Sereno
Sereno
 Vento da N
Vento: N 7 km/h
Temperatura: 18°C
P.to di Rugiada: 14°C
Umidità: 78%
Barometro: 1024 hPa
Sommario: Sereno
Visibilità: superiore a 10 km
2022/10/07 06:55 LIRX 070655Z 36004KT CAVOK 18/14 Q1024
 
LIVM - Punta Marina/Rav, Italy
Dati ricevuti: Fri, 07-Oct-2022 08:55
parzialmente nuvoloso
parzialmente nuvoloso
 Vento da variabile
Vento: variabile 6 km/h
Temperatura: 14°C
P.to di Rugiada: 13°C
Umidità: 94%
Barometro: 1025 hPa
Nuvole: parzialmente nuvoloso
Visibilità: 7 km
2022/10/07 06:55 LIVM 070655Z VRB03KT 7000 NSC 14/13 Q1025
LIMV - Passo dei Giovi, Italy
Distanza dalla stazione: OSO 152km
Dati ricevuti: Fri, 07-Oct-2022 08:55
Nebbia
Nebbia
 Vento da variabile
Vento: variabile 0 km/h
Temperatura: 13°C
P.to di Rugiada: 12°C
Umidità: 94%
Barometro: 1027 hPa
Sommario: Nebbia
Visibilità: 1 km
2022/10/07 06:55 LIMV 070655Z /////KT 0800 FG VV/// 13/12 Q1027
 
LIPB - Bolzano(Civ/It-A, Italy
Distanza dalla stazione: NNE 152km
Dati ricevuti: Fri, 07-Oct-2022 08:50
Sereno
Sereno
 Vento da variabile
Vento: variabile 2 km/h
Temperatura: 9°C
P.to di Rugiada: 8°C
Umidità: 94%
Barometro: 1029 hPa
Sommario: Sereno
Visibilità: superiore a 10 km
2022/10/07 06:50 LIPB 070650Z VRB01KT CAVOK 09/08 Q1029
LIVD - Bolzano-Dobbiaco, Italy
Dati ricevuti: Fri, 07-Oct-2022 08:55
Sereno
Sereno
 Vento da E
Vento: E 2 km/h
Temperatura: 7°C
P.to di Rugiada: 5°C
Umidità: 87%
Barometro: 1032 hPa
Sommario: Sereno
Visibilità: superiore a 10 km
2022/10/07 06:55 LIVD 070655Z 08001KT CAVOK 07/05 Q1032
 
LIVE - Bolzano-Passo Resia, Italy
Distanza dalla stazione: NO 160km
Dati ricevuti: Fri, 07-Oct-2022 08:55
Sereno
Sereno
 Vento da variabile
Vento: variabile 2 km/h
Temperatura: 6°C
P.to di Rugiada: 4°C
Umidità: 87%
Barometro: 1029 hPa
Sommario: Sereno
Visibilità: superiore a 10 km
2022/10/07 06:55 LIVE 070655Z VRB01KT CAVOK 06/04 Q1029
LIMH - Aosta-Pian Rosa (mtn T, Italy
Dati ricevuti: Wed, 05-Oct-2022 09:55
Non attivo

 Vento da SSO
Vento: SSO 15 km/h
Temperatura: 5°C
Temperatura del vento: 2°C
P.to di Rugiada: -13°C
Umidità: 26%
Barometro: 1037 hPa
2022/10/05 07:55 LIMH 050755Z AUTO 21008KT //// 05/M13 Q1037
 
LIMZ - Cuneo/Levaldigi, Italy
Dati ricevuti: Fri, 07-Oct-2022 08:50
Foschia, Molto nuvoloso
Foschia, Molto nuvoloso
 Vento da SSO
Vento: SSO 4 km/h
Temperatura: 16°C
P.to di Rugiada: 15°C
Umidità: 94%
Barometro: 1027 hPa
Sommario: Foschia
Nuvole: Molto nuvoloso
Visibilità: 5 km
Dettaglio nuvole: Molto nuvoloso 1219 m
2022/10/07 06:50 LIMZ 070650Z AUTO 21002KT 5000 BR BKN040/// 16/15 Q1027
LIMK - Torino-Bric Della Croce, Italy
Dati ricevuti: Fri, 07-Oct-2022 08:55
Foschia, parzialmente nuvoloso
Foschia, parzialmente nuvoloso
 Vento da calm
Vento: Calma
Temperatura: 16°C
P.to di Rugiada: 16°C
Umidità: 100%
Barometro: 1027 hPa
Sommario: Foschia
Nuvole: parzialmente nuvoloso
Visibilità: 5 km
2022/10/07 06:55 LIMK 070655Z 00000KT 5000 BR NSC 16/16 Q1027
 
LIMN - Novara-Cameri (it-Afb), Italy
Dati ricevuti: Fri, 07-Oct-2022 08:55
parzialmente nuvoloso
parzialmente nuvoloso
 Vento da variabile
Vento: variabile 0 km/h
Temperatura: 14°C
P.to di Rugiada: 13°C
Umidità: 94%
Barometro: 1026 hPa
Nuvole: parzialmente nuvoloso
Visibilità: 8 km
2022/10/07 06:55 LIMN 070655Z /////KT 8000 NSC 14/13 Q1026
LIPA - Pordenone-Aviano (it/Us-Af, Italy
Dati ricevuti: Fri, 07-Oct-2022 08:55
Sereno
Sereno
 Vento da N
Vento: N 6 km/h
Temperatura: 18°C
P.to di Rugiada: 14°C
Umidità: 78%
Barometro: 1025 hPa
Sommario: Sereno
Visibilità: superiore a 10 km
2022/10/07 06:55 LIPA 070655Z 01003KT CAVOK 18/14 Q1025
 
LIPI - Udine-Rivolto (it-Afb), Italy
Dati ricevuti: Fri, 07-Oct-2022 08:55
Sereno
Sereno
 Vento da NNO
Vento: NNO 11 km/h
Temperatura: 16°C
P.to di Rugiada: 12°C
Umidità: 77%
Barometro: 1025 hPa
Sommario: Sereno
Visibilità: superiore a 10 km
2022/10/07 06:55 LIPI 070655Z 34006KT CAVOK 16/12 Q1025
LIVO - Udine-Tarvisio, Italy
Dati ricevuti: Fri, 07-Oct-2022 08:55
Molto nuvoloso
Molto nuvoloso
 Vento da calm
Vento: Calma
Temperatura: 9°C
P.to di Rugiada: 7°C
Umidità: 87%
Barometro: 1029 hPa
Nuvole: Molto nuvoloso
Visibilità: 8 km
Dettaglio nuvole: Molto nuvoloso 610 m
2022/10/07 06:55 LIVO 070655Z 00000KT 8000 BKN020 09/07 Q1029
 
LIPQ - Trieste-Ronchi Dei Legionari, Italy
Dati ricevuti: Fri, 07-Oct-2022 08:50
Sereno
Sereno
 Vento da NNE
Vento: NNE 6 km/h
Temperatura: 18°C
P.to di Rugiada: 13°C
Umidità: 73%
Barometro: 1025 hPa
Nuvole: Sereno
Visibilità: 10 km
2022/10/07 06:50 LIPQ 070650Z AUTO 02003KT 350V060 9999 NCD 18/13 Q1025
LIVT - Trieste, Italy
Dati ricevuti: Fri, 07-Oct-2022 08:55
Sereno
Sereno
 Vento da ENE
Vento: ENE 19 km/h, Raffica: 41 km/h
Temperatura: 20°C
P.to di Rugiada: 13°C
Umidità: 64%
Barometro: 1024 hPa
Sommario: Sereno
Visibilità: superiore a 10 km
2022/10/07 06:55 LIVT 070655Z 06010G22KT 010V140 CAVOK 20/13 Q1024
 
LIRQ - Firenze/Peretola, Italy
Dati ricevuti: Fri, 07-Oct-2022 08:50
Sereno
Sereno
 Vento da variabile
Vento: variabile 2 km/h
Temperatura: 14°C
P.to di Rugiada: 13°C
Umidità: 94%
Barometro: 1025 hPa
Sommario: Sereno
Visibilità: superiore a 10 km
2022/10/07 06:50 LIRQ 070650Z VRB01KT CAVOK 14/13 Q1025
LIRP - Pisa (civ/It-Afb, Italy
Dati ricevuti: Fri, 07-Oct-2022 08:45
Sereno
Sereno
 Vento da ESE
Vento: ESE 6 km/h
Temperatura: 14°C
P.to di Rugiada: 14°C
Umidità: 100%
Barometro: 1025 hPa
Sommario: Sereno
Visibilità: superiore a 10 km
2022/10/07 06:45 LIRP 070645Z 12003KT CAVOK 14/14 Q1025 NOSIG
 
LIRA - Roma-Ciampino(It-Afb/, Italy
Dati ricevuti: Fri, 07-Oct-2022 08:50
Sereno
Sereno
 Vento da NE
Vento: NE 7 km/h
Temperatura: 16°C
P.to di Rugiada: 13°C
Umidità: 83%
Barometro: 1024 hPa
Sommario: Sereno
Visibilità: superiore a 10 km
2022/10/07 06:50 LIRA 070650Z 05004KT CAVOK 16/13 Q1024
LIRU - Rome/Urbe (it-Af, Italy
Dati ricevuti: Fri, 07-Oct-2022 08:50
Sereno
Sereno
 Vento da N
Vento: N 6 km/h
Temperatura: 15°C
P.to di Rugiada: 15°C
Umidità: 100%
Barometro: 1024 hPa
Sommario: Sereno
Visibilità: superiore a 10 km
2022/10/07 06:50 LIRU 070650Z 35003KT CAVOK 15/15 Q1024
 
LIRG - Roma-Guidonia (it-Afb, Italy
Dati ricevuti: Fri, 07-Oct-2022 08:55
Sereno
Sereno
 Vento da N
Vento: N 4 km/h
Temperatura: 14°C
P.to di Rugiada: 12°C
Umidità: 88%
Barometro: 1024 hPa
Sommario: Sereno
Visibilità: superiore a 10 km
2022/10/07 06:55 LIRG 070655Z 36002KT CAVOK 14/12 Q1024
LIRE - Roma-Pratica Di Mare(, Italy
Dati ricevuti: Fri, 07-Oct-2022 08:55
Sereno
Sereno
 Vento da NNE
Vento: NNE 13 km/h
Temperatura: 16°C
P.to di Rugiada: 14°C
Umidità: 88%
Barometro: 1023 hPa
Sommario: Sereno
Visibilità: superiore a 10 km
2022/10/07 06:55 LIRE 070655Z 03007KT CAVOK 16/14 Q1023
 
LIRF - Roma-Fiumicino, Italy
Dati ricevuti: Fri, 07-Oct-2022 08:50
Sereno
Sereno
 Vento da ENE
Vento: ENE 7 km/h
Temperatura: 18°C
P.to di Rugiada: 15°C
Umidità: 83%
Barometro: 1024 hPa
Sommario: Sereno
Visibilità: superiore a 10 km
2022/10/07 06:50 LIRF 070650Z 06004KT CAVOK 18/15 Q1024 NOSIG
LIRL - Latina (it-Afb), Italy
Dati ricevuti: Fri, 07-Oct-2022 08:55
Sereno
Sereno
 Vento da variabile
Vento: variabile 4 km/h
Temperatura: 16°C
P.to di Rugiada: 15°C
Umidità: 94%
Barometro: 1023 hPa
Sommario: Sereno
Visibilità: superiore a 10 km
2022/10/07 06:55 LIRL 070655Z VRB02KT CAVOK 16/15 Q1023
 
LIRH - Frosinone (it-Af, Italy
Dati ricevuti: Fri, 07-Oct-2022 08:55
Poco nuvoloso
Poco nuvoloso
 Vento da calm
Vento: Calma
Temperatura: 15°C
P.to di Rugiada: 14°C
Umidità: 94%
Barometro: 1024 hPa
Nuvole: Poco nuvoloso
Visibilità: 6 km
Dettaglio nuvole: Poco nuvoloso 305 m
2022/10/07 06:55 LIRH 070655Z 00000KT 6000 FEW010 15/14 Q1024
LIQN - Rieti, Italy
Dati ricevuti: Thu, 06-Oct-2022 19:50
Non attivo
Sereno
Sereno
 Vento da variabile
Vento: variabile 4 km/h
Temperatura: 19°C
P.to di Rugiada: 15°C
Umidità: 78%
Barometro: 1027 hPa
Sommario: Sereno
Visibilità: superiore a 10 km
2022/10/06 17:50 LIQN 061750Z VRB02KT CAVOK 19/15 Q1027
 
LIRK - Rieti-Monte Terminillo, Italy
Dati ricevuti: Fri, 07-Oct-2022 08:55

 Vento da SE
Vento: SE 9 km/h
Temperatura: 12°C
P.to di Rugiada: -5°C
Umidità: 30%
Barometro: 1033 hPa
2022/10/07 06:55 LIRK 070655Z AUTO 14005KT //// 12/M05 Q1033
LIRV - Viterbo (it-Mil), Italy
Dati ricevuti: Fri, 07-Oct-2022 08:55
Sereno
Sereno
 Vento da ENE
Vento: ENE 13 km/h
Temperatura: 15°C
P.to di Rugiada: 13°C
Umidità: 88%
Barometro: 1024 hPa
Sommario: Sereno
Visibilità: superiore a 10 km
2022/10/07 06:55 LIRV 070655Z 06007KT CAVOK 15/13 Q1024
 
LIQO - Grosseto-Monte Argentario, Italy
Dati ricevuti: Fri, 07-Oct-2022 08:55

 Vento da variabile
Vento: variabile 0 km/h
2022/10/07 06:55 LIQO 070655Z AUTO /////KT //// ///// Q////
LIRZ - Perugia, Italy
Dati ricevuti: Fri, 07-Oct-2022 08:50
Sereno
Sereno
 Vento da NNE
Vento: NNE 6 km/h
Temperatura: 13°C
P.to di Rugiada: 12°C
Umidità: 94%
Barometro: 1025 hPa
Nuvole: Sereno
Visibilità: 10 km
2022/10/07 06:50 LIRZ 070650Z AUTO 02003KT 340V050 9999 NCD 13/12 Q1025
 
LIBP - Pescara, Italy
Dati ricevuti: Fri, 07-Oct-2022 08:50
Molto nuvoloso
Molto nuvoloso
 Vento da SO
Vento: SO 7 km/h
Temperatura: 14°C
P.to di Rugiada: 11°C
Umidità: 82%
Barometro: 1025 hPa
Nuvole: Molto nuvoloso
Visibilità: 10 km
Dettaglio nuvole: Molto nuvoloso 6096 m
2022/10/07 06:50 LIBP 070650Z AUTO 23004KT 9999 BKN200/// 14/11 Q1025
LIRM - Caserta-Grazzanise (it-A, Italy
Dati ricevuti: Fri, 07-Oct-2022 08:55
Molto nuvoloso
Molto nuvoloso
 Vento da NNO
Vento: NNO 7 km/h
Temperatura: 16°C
P.to di Rugiada: 13°C
Umidità: 83%
Barometro: 1024 hPa
Nuvole: Molto nuvoloso
Visibilità: 10 km
Dettaglio nuvole: Molto nuvoloso 2134 m
2022/10/07 06:55 LIRM 070655Z 33004KT 9999 BKN070 16/13 Q1024
 
LIRS - Grosseto (it-Afb, Italy
Dati ricevuti: Fri, 07-Oct-2022 08:55
Sereno
Sereno
 Vento da ENE
Vento: ENE 9 km/h
Temperatura: 15°C
P.to di Rugiada: 12°C
Umidità: 82%
Barometro: 1024 hPa
Sommario: Sereno
Visibilità: superiore a 10 km
2022/10/07 06:55 LIRS 070655Z 06005KT CAVOK 15/12 Q1024
LIRN - Napoli-Capodichino, Italy
Dati ricevuti: Fri, 07-Oct-2022 08:50
Sereno
Sereno
 Vento da N
Vento: N 6 km/h
Temperatura: 19°C
P.to di Rugiada: 12°C
Umidità: 64%
Barometro: 1024 hPa
Sommario: Sereno
Visibilità: superiore a 10 km
2022/10/07 06:50 LIRN 070650Z 35003KT 320V020 CAVOK 19/12 Q1024 NOSIG
 
LIVF - Pesaro Urbino-Frontone, Italy
Dati ricevuti: Fri, 07-Oct-2022 08:55
Sereno
Sereno
 Vento da O
Vento: O 6 km/h
Temperatura: 15°C
P.to di Rugiada: 13°C
Umidità: 88%
Barometro: 1025 hPa
Sommario: Sereno
Visibilità: superiore a 10 km
2022/10/07 06:55 LIVF 070655Z 27003KT CAVOK 15/13 Q1025
LIQC - Capri, Italy
Dati ricevuti: Fri, 07-Oct-2022 08:55
parzialmente nuvoloso
parzialmente nuvoloso
 Vento da calm
Vento: Calma
Temperatura: 19°C
P.to di Rugiada: 15°C
Umidità: 78%
Barometro: 1024 hPa
Nuvole: parzialmente nuvoloso
Visibilità: 10 km
Dettaglio nuvole: parzialmente nuvoloso 1524 m
2022/10/07 06:55 LIQC 070655Z 00000KT 9999 SCT050 19/15 Q1024 RMK SCT QUK 1 QUL 1 NE VIS MAR 20 KM VIS MIN 9999
 
LIPY - Ancona-Falconara (it-Af, Italy
Dati ricevuti: Fri, 07-Oct-2022 08:50
Sereno
Sereno
 Vento da SSO
Vento: SSO 7 km/h
Temperatura: 15°C
P.to di Rugiada: 14°C
Umidità: 94%
Barometro: 1025 hPa
Nuvole: Sereno
Visibilità: 10 km
2022/10/07 06:50 LIPY 070650Z AUTO 20004KT 9999 NCD 15/14 Q1025
LIRX - Monte Calamita, Italy
Dati ricevuti: Fri, 07-Oct-2022 08:55
Sereno
Sereno
 Vento da N
Vento: N 7 km/h
Temperatura: 18°C
P.to di Rugiada: 14°C
Umidità: 78%
Barometro: 1024 hPa
Sommario: Sereno
Visibilità: superiore a 10 km
2022/10/07 06:55 LIRX 070655Z 36004KT CAVOK 18/14 Q1024
 
LIEB - Cape Bellavista, Italy
Dati ricevuti: Fri, 07-Oct-2022 08:55
Sereno
Sereno
 Vento da O
Vento: O 11 km/h
Temperatura: 19°C
P.to di Rugiada: 10°C
Umidità: 56%
Barometro: 1024 hPa
Sommario: Sereno
Visibilità: superiore a 10 km
2022/10/07 06:55 LIEB 070655Z 27006KT CAVOK 19/10 Q1024 RMK SKC QUK 1 QUL 0 VIS MAR 30 KM MON LIB VIS MIN 9999
LIEC - Cape Carbonara, Italy
Dati ricevuti: Fri, 07-Oct-2022 08:55
Poco nuvoloso
Poco nuvoloso
 Vento da E
Vento: E 17 km/h
Temperatura: 20°C
P.to di Rugiada: 18°C
Umidità: 88%
Barometro: 1023 hPa
Nuvole: Poco nuvoloso
Visibilità: 10 km
Dettaglio nuvole: Poco nuvoloso 610 m
2022/10/07 06:55 LIEC 070655Z 08009KT 9999 FEW020 20/18 Q1023 RMK FEW QUK 2 QUL 0 VIS MAR 25 KM VIS MIN 9999
 
LIED - Cagliari-Decimomannu(It-A, Italy
Dati ricevuti: Fri, 07-Oct-2022 08:55
Sereno
Sereno
 Vento da NNE
Vento: NNE 4 km/h
Temperatura: 14°C
P.to di Rugiada: 11°C
Umidità: 82%
Barometro: 1024 hPa
Sommario: Sereno
Visibilità: superiore a 10 km
2022/10/07 06:55 LIED 070655Z 02002KT CAVOK 14/11 Q1024
LIEE - Cagliari-Elmas(A, Italy
Dati ricevuti: Fri, 07-Oct-2022 08:50
Sereno
Sereno
 Vento da N
Vento: N 7 km/h
Temperatura: 16°C
P.to di Rugiada: 13°C
Umidità: 83%
Barometro: 1024 hPa
Sommario: Sereno
Visibilità: superiore a 10 km
2022/10/07 06:50 LIEE 070650Z 35004KT CAVOK 16/13 Q1024
 
LIEO - Olbia-Costa Smeralda, Italy
Dati ricevuti: Fri, 07-Oct-2022 08:50
Sereno
Sereno
 Vento da variabile
Vento: variabile 2 km/h
Temperatura: 14°C
P.to di Rugiada: 13°C
Umidità: 94%
Barometro: 1025 hPa
Sommario: Sereno
Visibilità: superiore a 10 km
2022/10/07 06:50 LIEO 070650Z VRB01KT CAVOK 14/13 Q1025
LIEA - Alghero, Italy
Dati ricevuti: Fri, 07-Oct-2022 08:50
Sereno
Sereno
 Vento da variabile
Vento: variabile 4 km/h
Temperatura: 16°C
P.to di Rugiada: 15°C
Umidità: 94%
Barometro: 1024 hPa
Sommario: Sereno
Visibilità: superiore a 10 km
2022/10/07 06:50 LIEA 070650Z VRB02KT CAVOK 16/15 Q1024
 
LICA - Catanzaro-Lamezia Terme, Italy
Dati ricevuti: Fri, 07-Oct-2022 08:50
Molto nuvoloso
Molto nuvoloso
 Vento da E
Vento: E 7 km/h
Temperatura: 15°C
P.to di Rugiada: 14°C
Umidità: 94%
Barometro: 1024 hPa
Nuvole: Molto nuvoloso
Visibilità: 10 km
Dettaglio nuvole: Molto nuvoloso 732 m
2022/10/07 06:50 LICA 070650Z AUTO 09004KT 9999 BKN024/// 15/14 Q1024
LIBQ - Cosenza-Monte Scuro, Italy
Dati ricevuti: Fri, 07-Oct-2022 08:55
Sereno
Sereno
 Vento da E
Vento: E 17 km/h
Temperatura: 12°C
P.to di Rugiada: -4°C
Umidità: 33%
Barometro: 1028 hPa
Sommario: Sereno
Visibilità: superiore a 10 km
2022/10/07 06:55 LIBQ 070655Z 09009KT CAVOK 12/M04 Q1028
 
LICR - Reggio Calabria, Italy
Dati ricevuti: Fri, 07-Oct-2022 08:50
Sereno
Sereno
 Vento da variabile
Vento: variabile 4 km/h
Temperatura: 21°C
P.to di Rugiada: 7°C
Umidità: 40%
Barometro: 1024 hPa
Nuvole: Sereno
Visibilità: 10 km
2022/10/07 06:50 LICR 070650Z AUTO VRB02KT 9999 NCD 21/07 Q1024
LIBV - Bari-Gioia Del Colle, Italy
Dati ricevuti: Fri, 07-Oct-2022 08:55
Sereno
Sereno
 Vento da NNO
Vento: NNO 15 km/h
Temperatura: 18°C
P.to di Rugiada: 15°C
Umidità: 83%
Barometro: 1023 hPa
Sommario: Sereno
Visibilità: superiore a 10 km
2022/10/07 06:55 LIBV 070655Z 33008KT CAVOK 18/15 Q1023
 
LIBD - Bari-Palese Macchie, Italy
Dati ricevuti: Fri, 07-Oct-2022 08:50
Sereno
Sereno
 Vento da O
Vento: O 9 km/h
Temperatura: 19°C
P.to di Rugiada: 13°C
Umidità: 68%
Barometro: 1024 hPa
Sommario: Sereno
Visibilità: superiore a 10 km
2022/10/07 06:50 LIBD 070650Z 28005KT 240V310 CAVOK 19/13 Q1024
LIBR - Brindisi-Casale, Italy
Dati ricevuti: Fri, 07-Oct-2022 08:50
parzialmente nuvoloso
parzialmente nuvoloso
 Vento da N
Vento: N 26 km/h
Temperatura: 21°C
P.to di Rugiada: 17°C
Umidità: 78%
Barometro: 1023 hPa
Nuvole: parzialmente nuvoloso
Visibilità: 10 km
Dettaglio nuvole: parzialmente nuvoloso 457 m
2022/10/07 06:50 LIBR 070650Z 35014KT 9999 SCT015 21/17 Q1023
 
LIRT - Trevico, Italy
Dati ricevuti: Fri, 07-Oct-2022 08:55
Sereno
Sereno
 Vento da NE
Vento: NE 7 km/h
Temperatura: 15°C
P.to di Rugiada: 8°C
Umidità: 63%
Barometro: 1026 hPa
Sommario: Sereno
Visibilità: superiore a 10 km
2022/10/07 06:55 LIRT 070655Z 05004KT CAVOK 15/08 Q1026
LICB - Comiso, Italy
Dati ricevuti: Fri, 07-Oct-2022 08:50
Sereno
Sereno
 Vento da E
Vento: E 6 km/h
Temperatura: 21°C
P.to di Rugiada: 16°C
Umidità: 73%
Barometro: 1024 hPa
Nuvole: Sereno
Visibilità: 10 km
2022/10/07 06:50 LICB 070650Z AUTO 08003KT 030V110 9999 NCD 21/16 Q1024
 
LICL - Gela, Italy
Dati ricevuti: Fri, 07-Oct-2022 08:55
Sereno
Sereno
 Vento da ENE
Vento: ENE 7 km/h
Temperatura: 23°C
P.to di Rugiada: 20°C
Umidità: 83%
Barometro: 1024 hPa
Sommario: Sereno
Visibilità: superiore a 10 km
2022/10/07 06:55 LICL 070655Z 07004KT 030V130 CAVOK 23/20 Q1024 RMK FEW FEW070 QUK 1 QUL 0 VIS MAR 15 KM VIS MIN 9999
LIBN - Lecce (it-Afb), Italy
Dati ricevuti: Fri, 07-Oct-2022 08:55
Poco nuvoloso
Poco nuvoloso
 Vento da NNO
Vento: NNO 24 km/h
Temperatura: 19°C
P.to di Rugiada: 17°C
Umidità: 88%
Barometro: 1022 hPa
Nuvole: Poco nuvoloso
Visibilità: 10 km
Dettaglio nuvole: Poco nuvoloso 244 m
2022/10/07 06:55 LIBN 070655Z 34013KT 9999 FEW008 19/17 Q1022
 
LICJ - Palermo-Punta Raisi, Italy
Dati ricevuti: Fri, 07-Oct-2022 08:50
Sereno
Sereno
 Vento da S
Vento: S 6 km/h
Temperatura: 19°C
P.to di Rugiada: 15°C
Umidità: 78%
Barometro: 1023 hPa
Sommario: Sereno
Visibilità: superiore a 10 km
2022/10/07 06:50 LICJ 070650Z 17003KT CAVOK 19/15 Q1023
LICZ - Catania-Sigonella (nas), Italy
Dati ricevuti: Fri, 07-Oct-2022 08:55
Sereno
Sereno
 Vento da variabile
Vento: variabile 0 km/h
Temperatura: 18°C
P.to di Rugiada: 18°C
Umidità: 100%
Barometro: 1023 hPa
Sommario: Sereno
Visibilità: superiore a 10 km
2022/10/07 06:55 LICZ 070655Z /////KT CAVOK 18/18 Q1023
 
LICC - Catania-Fontanarossa, Italy
Dati ricevuti: Fri, 07-Oct-2022 08:50
Sereno
Sereno
 Vento da SO
Vento: SO 13 km/h
Temperatura: 18°C
P.to di Rugiada: 14°C
Umidità: 78%
Barometro: 1024 hPa
Sommario: Sereno
Visibilità: superiore a 10 km
2022/10/07 06:50 LICC 070650Z 23007KT CAVOK 18/14 Q1024
LICT - Trapani-Birgi (a, Italy
Dati ricevuti: Fri, 07-Oct-2022 08:55
Poco nuvoloso
Poco nuvoloso
 Vento da ESE
Vento: ESE 6 km/h
Temperatura: 19°C
P.to di Rugiada: 14°C
Umidità: 73%
Barometro: 1023 hPa
Nuvole: Poco nuvoloso
Visibilità: 10 km
Dettaglio nuvole: Poco nuvoloso 61 m
2022/10/07 06:55 LICT 070655Z 12003KT 9999 FEW002 19/14 Q1023
 
LICD - Agrigento-Lampedusa, Italy
Dati ricevuti: Fri, 07-Oct-2022 08:50
Sereno
Sereno
 Vento da variabile
Vento: variabile 4 km/h
Temperatura: 24°C
P.to di Rugiada: 15°C
Umidità: 57%
Barometro: 1023 hPa
Nuvole: Sereno
Visibilità: 10 km
2022/10/07 06:50 LICD 070650Z AUTO VRB02KT 9999 NCD 24/15 Q1023
LICG - Pantelleria(It-A, Italy
Dati ricevuti: Fri, 07-Oct-2022 08:50
Sereno
Sereno
 Vento da calm
Vento: Calma
Temperatura: 21°C
P.to di Rugiada: 16°C
Umidità: 73%
Barometro: 1024 hPa
Sommario: Sereno
Visibilità: superiore a 10 km
2022/10/07 06:50 LICG 070650Z 00000KT CAVOK 21/16 Q1024


METEO PILLOLE
La più disastrosa inondazione causata da cicloni
Bangladesh
Nel novembre 1970 un ciclone nel Golfo del Bangladesh uccise circa 300.000 persone.
Share

Non seguire questo link o sarai bannato dal sito!